Nearby METAR Reports

 

KSLC - Salt Lake City, Utah, USA
Distance from station: SW 8mi, 13km
Updated: Tue, 21-Aug-2018 10:54pm MDT
Mostly cloudy
Mostly cloudy
 Wind from SSE
Wind: SSE 13 mph , 20 km/h
Temperature: 73°F , 23°C
Dew Point: 57°F , 14°C
Humidity: 57%
Barometer: 30.06 inHg , 1017.9 hPa
Clouds: Mostly cloudy
Visibility: 10 miles , 16 km
Cloud details: Few Clouds 9000 ft
Mostly cloudy 12000 ft
Mostly cloudy 21000 ft
2018/08/22 04:54 KSLC 220454Z 15011KT 10SM FEW090 BKN120 BKN210 23/14 A3006 RMK AO2 RAE0358 SLP126 P0000 T02280139
KU42 - Salt Lake Muni, Utah, USA
Distance from station: SSW 18mi, 28km
Updated: Tue, 21-Aug-2018 11:35pm MDT
Clear
Clear
 Wind from S
Wind: S 16 mph , 26 km/h
Temperature: 72°F , 22°C
Dew Point: 54°F , 12°C
Humidity: 53%
Barometer: 30.09 inHg , 1019 hPa
Clouds: Clear
Visibility: 10 miles , 16 km
2018/08/22 05:35 KU42 220535Z AUTO 18014KT 10SM CLR 22/12 A3009 RMK AO1 T02200118
 
KHIF - Hill Afb/Ogden, Utah, USA
Distance from station: NNW 19mi, 30km
Updated: Tue, 21-Aug-2018 10:58pm MDT
Few Clouds
Few Clouds
 Wind from ESE
Wind: ESE 10 mph , 17 km/h, Gust: 18 mph , 30 km/h
Temperature: 75°F , 24°C
Dew Point: 41°F , 5°C
Humidity: 29%
Barometer: 30.09 inHg , 1019 hPa
Clouds: Few Clouds
Visibility: 10 miles , 16 km
Cloud details: Few Clouds 14000 ft
2018/08/22 04:58 KHIF 220458Z AUTO 12009G16KT 10SM FEW140 24/05 A3009 RMK AO2 SLP131 T02350054
KOGD - Ogden, Utah, USA
Distance from station: NNW 25mi, 40km
Updated: Tue, 21-Aug-2018 10:53pm MDT
Clear
Clear
 Wind from SSW
Wind: SSW 8 mph , 13 km/h
Temperature: 73°F , 23°C
Dew Point: 45°F , 7°C
Humidity: 36%
Barometer: 30.06 inHg , 1017.9 hPa
Clouds: Clear
Visibility: 10 miles , 16 km
2018/08/22 04:53 KOGD 220453Z AUTO 20007KT 10SM CLR 23/07 A3006 RMK AO2 SLP120 T02280072
 
K36U - Heber/Russ Mcdon, Utah, USA
Distance from station: SE 34mi, 55km
Updated: Wed, 11-Oct-2017 6:50pm MDT
NOT Current
Clear
Clear
 Wind from SSW
Wind: SSW 10 mph , 17 km/h, Gust: 18 mph , 30 km/h
Temperature: 63°F , 17°C
Dew Point: 16°F , -9°C
Humidity: 16%
Barometer: 29.87 inHg , 1011.5 hPa
Clouds: Clear
Visibility: 10 miles , 16 km
2017/10/12 00:50 K36U 120050Z AUTO 21009G16KT 10SM CLR 17/M09 A2987 RMK AO2
KPVU - Provo Muni, Utah, USA
Distance from station: S 45mi, 72km
Updated: Tue, 21-Aug-2018 11:12pm MDT
Few Clouds
Few Clouds
 Wind from varies
Wind: varies 5 mph , 7 km/h
Temperature: 66°F , 19°C
Dew Point: 55°F , 13°C
Humidity: 68%
Barometer: 30.13 inHg , 1020.3 hPa
Clouds: Few Clouds
Visibility: 10 miles , 16 km
Cloud details: Few Clouds 2500 ft
2018/08/22 05:12 KPVU 220512Z AUTO VRB04KT 10SM FEW025 19/13 A3013 RMK AO2 LTG DSNT SE AND S TSE06RAE05 P0000